Accueil
METAR-TAF:

METAR-TAF

Aéroports :

Uden, Pays-Bas

Base aérienne Volkel-Uden

latitude: 51-39N, longitude: 005-42E, altitude: 22 m

Observation

Le bulletin a été fait il y a 36 minutes, à 23:55 UTC
Vent 8 kt de nord-est
Température -1°C
Humidité 74%
Pression 1025 hPa
Visibilité 10 km ou plus

METAR: EHVK 212355Z AUTO 04008KT 9999 NCD M01/M05 Q1025 BLU

Heure: 01:31 (00:31 UTC)

Prévision

Le bulletin a été fait il y a 6 heures et 58 minutes, à 17:33 UTC
Prévision valable du 21 à 18 UTC au 22 à 06 UTC
Vent 4 kt de nord/nord-est
Visibilité: 8000 m

TAF: EHVK 211733Z 2118/2206 03004KT 8000 NSC

Observations et prévisions météorologiques de plus de 4000 aéroports (messages METAR et TAF).

Les stations disponibles sont représentées par des disques jaunes et rouges sur la carte.

Passer la souris dessus pour voir le nom de la station.

Cliquer dessus pour voir les observations et prévisions météorologiques.

Pour changer de carte: cliquez sur les boutons verts avec une croix noire pour zoomer, sur le bouton vert avec un tiret pour effectuer un zoom arrière, ou sur les flèches vertes pour les cartes adjacentes.


METAR-TAF: